sensor_id;sensor_type;location;lat;lon;timestamp;pressure;altitude;pressure_sealevel;temperature;humidity
76603;BME280;65075;48.390;17.598;2023-05-07T00:01:39;99778.66;;;16.36;63.44
76603;BME280;65075;48.390;17.598;2023-05-07T00:04:05;99783.44;;;15.19;69.47
76603;BME280;65075;48.390;17.598;2023-05-07T00:06:32;99738.28;;;14.82;69.55
76603;BME280;65075;48.390;17.598;2023-05-07T00:08:58;99783.16;;;15.20;69.08
76603;BME280;65075;48.390;17.598;2023-05-07T00:11:24;99786.50;;;15.60;68.33
76603;BME280;65075;48.390;17.598;2023-05-07T00:13:51;99756.44;;;15.44;67.27
76603;BME280;65075;48.390;17.598;2023-05-07T00:16:16;99777.50;;;16.56;64.07
76603;BME280;65075;48.390;17.598;2023-05-07T00:18:42;99785.59;;;16.93;63.17
76603;BME280;65075;48.390;17.598;2023-05-07T00:21:07;99775.84;;;15.53;66.48
76603;BME280;65075;48.390;17.598;2023-05-07T00:23:33;99788.72;;;15.95;65.94
76603;BME280;65075;48.390;17.598;2023-05-07T00:25:58;99772.28;;;15.90;66.11
76603;BME280;65075;48.390;17.598;2023-05-07T00:28:24;99734.19;;;15.97;64.27
76603;BME280;65075;48.390;17.598;2023-05-07T00:30:50;99775.06;;;16.95;62.20
76603;BME280;65075;48.390;17.598;2023-05-07T00:33:15;99774.78;;;16.37;64.33
76603;BME280;65075;48.390;17.598;2023-05-07T00:35:42;99766.59;;;17.19;60.96
76603;BME280;65075;48.390;17.598;2023-05-07T00:38:07;99771.91;;;16.29;64.56
76603;BME280;65075;48.390;17.598;2023-05-07T00:40:33;99771.72;;;16.71;62.51
76603;BME280;65075;48.390;17.598;2023-05-07T00:42:59;99764.53;;;16.56;62.79
76603;BME280;65075;48.390;17.598;2023-05-07T00:45:27;99775.84;;;15.90;65.59
76603;BME280;65075;48.390;17.598;2023-05-07T00:47:59;99780.59;;;16.82;63.11
76603;BME280;65075;48.390;17.598;2023-05-07T00:50:29;99777.97;;;16.12;64.65
76603;BME280;65075;48.390;17.598;2023-05-07T00:52:55;99781.56;;;15.38;67.78
76603;BME280;65075;48.390;17.598;2023-05-07T00:55:23;99767.25;;;14.70;70.67
76603;BME280;65075;48.390;17.598;2023-05-07T00:57:50;99765.59;;;16.61;64.32
76603;BME280;65075;48.390;17.598;2023-05-07T01:00:17;99713.78;;;15.66;65.67
76603;BME280;65075;48.390;17.598;2023-05-07T01:02:43;99739.50;;;14.48;70.45
76603;BME280;65075;48.390;17.598;2023-05-07T01:05:13;99753.13;;;15.05;69.60
76603;BME280;65075;48.390;17.598;2023-05-07T01:07:40;99767.16;;;14.22;72.90
76603;BME280;65075;48.390;17.598;2023-05-07T01:10:09;99760.63;;;14.52;70.71
76603;BME280;65075;48.390;17.598;2023-05-07T01:12:37;99762.44;;;13.99;73.74
76603;BME280;65075;48.390;17.598;2023-05-07T01:15:06;99752.34;;;14.23;73.11
76603;BME280;65075;48.390;17.598;2023-05-07T01:17:34;99761.81;;;13.35;76.71
76603;BME280;65075;48.390;17.598;2023-05-07T01:20:01;99754.09;;;13.37;76.35
76603;BME280;65075;48.390;17.598;2023-05-07T01:22:35;99771.13;;;14.11;74.03
76603;BME280;65075;48.390;17.598;2023-05-07T01:25:03;99762.34;;;14.67;71.77
76603;BME280;65075;48.390;17.598;2023-05-07T01:27:29;99737.44;;;13.67;73.68
76603;BME280;65075;48.390;17.598;2023-05-07T01:29:54;99725.53;;;13.87;74.11
76603;BME280;65075;48.390;17.598;2023-05-07T01:32:32;99748.03;;;15.17;69.31
76603;BME280;65075;48.390;17.598;2023-05-07T01:35:01;99757.16;;;15.31;69.26
76603;BME280;65075;48.390;17.598;2023-05-07T01:37:29;99754.81;;;13.91;73.23
76603;BME280;65075;48.390;17.598;2023-05-07T01:39:55;99757.19;;;14.37;72.83
76603;BME280;65075;48.390;17.598;2023-05-07T01:42:21;99760.31;;;15.43;68.02
76603;BME280;65075;48.390;17.598;2023-05-07T01:44:47;99747.66;;;13.95;71.42
76603;BME280;65075;48.390;17.598;2023-05-07T01:47:14;99763.84;;;15.25;67.76
76603;BME280;65075;48.390;17.598;2023-05-07T01:49:40;99766.13;;;15.79;66.50
76603;BME280;65075;48.390;17.598;2023-05-07T01:52:08;99775.00;;;14.05;70.98
76603;BME280;65075;48.390;17.598;2023-05-07T01:54:33;99776.50;;;15.03;68.23
76603;BME280;65075;48.390;17.598;2023-05-07T01:56:59;99772.56;;;14.38;70.18
76603;BME280;65075;48.390;17.598;2023-05-07T01:59:25;99776.25;;;14.75;68.49
76603;BME280;65075;48.390;17.598;2023-05-07T02:01:51;99764.91;;;15.29;66.27
76603;BME280;65075;48.390;17.598;2023-05-07T02:04:17;99769.44;;;14.15;69.87
76603;BME280;65075;48.390;17.598;2023-05-07T02:06:43;99764.56;;;13.30;73.40
76603;BME280;65075;48.390;17.598;2023-05-07T02:09:08;99747.03;;;14.03;71.47
76603;BME280;65075;48.390;17.598;2023-05-07T02:11:34;99763.75;;;14.88;68.77
76603;BME280;65075;48.390;17.598;2023-05-07T02:14:00;99764.03;;;13.71;73.07
76603;BME280;65075;48.390;17.598;2023-05-07T02:16:25;99764.00;;;13.28;74.79
76603;BME280;65075;48.390;17.598;2023-05-07T02:18:51;99769.66;;;13.51;73.94
76603;BME280;65075;48.390;17.598;2023-05-07T02:21:17;99762.06;;;13.77;74.45
76603;BME280;65075;48.390;17.598;2023-05-07T02:23:42;99751.44;;;13.65;75.57
76603;BME280;65075;48.390;17.598;2023-05-07T02:26:08;99771.84;;;13.88;75.53
76603;BME280;65075;48.390;17.598;2023-05-07T02:28:34;99762.03;;;13.82;75.12
76603;BME280;65075;48.390;17.598;2023-05-07T02:31:03;99780.59;;;14.81;71.06
76603;BME280;65075;48.390;17.598;2023-05-07T02:33:29;99745.78;;;13.52;74.87
76603;BME280;65075;48.390;17.598;2023-05-07T02:35:55;99740.03;;;13.87;73.49
76603;BME280;65075;48.390;17.598;2023-05-07T02:38:20;99764.78;;;14.45;73.25
76603;BME280;65075;48.390;17.598;2023-05-07T02:40:46;99750.78;;;14.94;70.03
76603;BME280;65075;48.390;17.598;2023-05-07T02:43:11;99760.69;;;16.25;65.75
76603;BME280;65075;48.390;17.598;2023-05-07T02:45:37;99739.56;;;14.90;69.04
76603;BME280;65075;48.390;17.598;2023-05-07T02:48:03;99767.50;;;14.97;69.42
76603;BME280;65075;48.390;17.598;2023-05-07T02:50:29;99765.94;;;14.39;72.02
76603;BME280;65075;48.390;17.598;2023-05-07T02:52:54;99768.19;;;14.31;72.41
76603;BME280;65075;48.390;17.598;2023-05-07T02:55:20;99784.22;;;14.77;71.37
76603;BME280;65075;48.390;17.598;2023-05-07T02:57:46;99778.34;;;13.58;74.90
76603;BME280;65075;48.390;17.598;2023-05-07T03:00:17;99778.69;;;15.24;68.43
76603;BME280;65075;48.390;17.598;2023-05-07T03:02:46;99777.19;;;14.08;71.61
76603;BME280;65075;48.390;17.598;2023-05-07T03:05:11;99777.72;;;15.15;68.95
76603;BME280;65075;48.390;17.598;2023-05-07T03:07:38;99781.22;;;13.82;73.34
76603;BME280;65075;48.390;17.598;2023-05-07T03:10:04;99780.53;;;15.90;65.96
76603;BME280;65075;48.390;17.598;2023-05-07T03:12:30;99774.09;;;16.45;62.75
76603;BME280;65075;48.390;17.598;2023-05-07T03:14:56;99794.00;;;15.30;68.12
76603;BME280;65075;48.390;17.598;2023-05-07T03:17:22;99797.78;;;14.68;70.80
76603;BME280;65075;48.390;17.598;2023-05-07T03:19:47;99791.59;;;15.05;69.61
76603;BME280;65075;48.390;17.598;2023-05-07T03:22:14;99764.31;;;15.32;67.64
76603;BME280;65075;48.390;17.598;2023-05-07T03:24:39;99789.06;;;16.85;62.97
76603;BME280;65075;48.390;17.598;2023-05-07T03:27:05;99792.22;;;16.79;62.07
76603;BME280;65075;48.390;17.598;2023-05-07T03:29:30;99786.31;;;16.85;62.90
76603;BME280;65075;48.390;17.598;2023-05-07T03:31:56;99790.34;;;15.16;67.81
76603;BME280;65075;48.390;17.598;2023-05-07T03:34:22;99809.38;;;14.89;70.81
76603;BME280;65075;48.390;17.598;2023-05-07T03:36:48;99801.53;;;16.50;63.00
76603;BME280;65075;48.390;17.598;2023-05-07T03:39:14;99803.38;;;15.90;66.66
76603;BME280;65075;48.390;17.598;2023-05-07T03:41:40;99800.97;;;16.67;64.42
76603;BME280;65075;48.390;17.598;2023-05-07T03:44:05;99800.47;;;15.82;65.68
76603;BME280;65075;48.390;17.598;2023-05-07T03:46:31;99743.31;;;16.11;64.21
76603;BME280;65075;48.390;17.598;2023-05-07T03:48:58;99809.50;;;16.98;63.46
76603;BME280;65075;48.390;17.598;2023-05-07T03:51:24;99804.06;;;15.64;66.77
76603;BME280;65075;48.390;17.598;2023-05-07T03:53:50;99795.78;;;15.82;66.48
76603;BME280;65075;48.390;17.598;2023-05-07T03:56:18;99811.06;;;16.26;64.99
76603;BME280;65075;48.390;17.598;2023-05-07T03:58:43;99795.66;;;14.60;69.88
76603;BME280;65075;48.390;17.598;2023-05-07T04:01:09;99812.47;;;14.54;71.10
76603;BME280;65075;48.390;17.598;2023-05-07T04:03:35;99779.00;;;15.65;66.14
76603;BME280;65075;48.390;17.598;2023-05-07T04:06:00;99817.41;;;15.28;67.84
76603;BME280;65075;48.390;17.598;2023-05-07T04:08:26;99794.75;;;14.94;68.22
76603;BME280;65075;48.390;17.598;2023-05-07T04:10:55;99824.06;;;15.45;67.83
76603;BME280;65075;48.390;17.598;2023-05-07T04:13:21;99814.16;;;15.26;67.25
76603;BME280;65075;48.390;17.598;2023-05-07T04:15:46;99827.91;;;15.68;66.14
76603;BME280;65075;48.390;17.598;2023-05-07T04:18:14;99816.03;;;14.83;68.42
76603;BME280;65075;48.390;17.598;2023-05-07T04:20:39;99782.47;;;14.86;67.81
76603;BME280;65075;48.390;17.598;2023-05-07T04:23:05;99838.91;;;15.44;67.05
76603;BME280;65075;48.390;17.598;2023-05-07T04:25:31;99839.00;;;16.51;63.60
76603;BME280;65075;48.390;17.598;2023-05-07T04:27:56;99847.69;;;15.70;65.78
76603;BME280;65075;48.390;17.598;2023-05-07T04:30:22;99845.94;;;14.56;70.21
76603;BME280;65075;48.390;17.598;2023-05-07T04:32:47;99852.56;;;15.07;68.74
76603;BME280;65075;48.390;17.598;2023-05-07T04:35:13;99844.28;;;15.97;65.63
76603;BME280;65075;48.390;17.598;2023-05-07T04:37:39;99858.88;;;15.31;67.60
76603;BME280;65075;48.390;17.598;2023-05-07T04:40:05;99850.13;;;15.29;68.17
76603;BME280;65075;48.390;17.598;2023-05-07T04:42:32;99850.59;;;15.79;66.66
76603;BME280;65075;48.390;17.598;2023-05-07T04:44:57;99856.97;;;15.32;67.73
76603;BME280;65075;48.390;17.598;2023-05-07T04:47:23;99854.75;;;16.32;64.17
76603;BME280;65075;48.390;17.598;2023-05-07T04:49:48;99856.72;;;16.45;64.12
76603;BME280;65075;48.390;17.598;2023-05-07T04:52:14;99850.63;;;16.81;63.32
76603;BME280;65075;48.390;17.598;2023-05-07T04:54:40;99864.28;;;16.02;65.49
76603;BME280;65075;48.390;17.598;2023-05-07T04:57:06;99865.50;;;16.66;63.51
76603;BME280;65075;48.390;17.598;2023-05-07T04:59:32;99860.88;;;17.35;61.55
76603;BME280;65075;48.390;17.598;2023-05-07T05:01:58;99868.03;;;17.63;61.09
76603;BME280;65075;48.390;17.598;2023-05-07T05:04:24;99863.94;;;17.20;62.01
76603;BME280;65075;48.390;17.598;2023-05-07T05:06:50;99872.09;;;17.38;61.38
76603;BME280;65075;48.390;17.598;2023-05-07T05:09:16;99864.78;;;16.74;63.49
76603;BME280;65075;48.390;17.598;2023-05-07T05:11:41;99822.75;;;15.62;67.37
76603;BME280;65075;48.390;17.598;2023-05-07T05:14:07;99858.03;;;16.67;63.99
76603;BME280;65075;48.390;17.598;2023-05-07T05:16:33;99865.22;;;16.30;65.35
76603;BME280;65075;48.390;17.598;2023-05-07T05:18:59;99873.59;;;16.90;63.34
76603;BME280;65075;48.390;17.598;2023-05-07T05:21:25;99860.81;;;18.03;59.06
76603;BME280;65075;48.390;17.598;2023-05-07T05:23:50;99870.66;;;17.82;60.52
76603;BME280;65075;48.390;17.598;2023-05-07T05:26:16;99874.38;;;17.63;61.11
76603;BME280;65075;48.390;17.598;2023-05-07T05:28:41;99870.91;;;17.71;61.05
76603;BME280;65075;48.390;17.598;2023-05-07T05:31:07;99872.81;;;18.20;59.71
76603;BME280;65075;48.390;17.598;2023-05-07T05:33:32;99863.09;;;17.05;62.47
76603;BME280;65075;48.390;17.598;2023-05-07T05:35:58;99885.25;;;17.96;58.75
76603;BME280;65075;48.390;17.598;2023-05-07T05:38:23;99878.44;;;17.80;59.52
76603;BME280;65075;48.390;17.598;2023-05-07T05:40:49;99879.53;;;17.92;58.41
76603;BME280;65075;48.390;17.598;2023-05-07T05:43:15;99844.34;;;17.98;57.99
76603;BME280;65075;48.390;17.598;2023-05-07T05:45:40;99871.78;;;17.53;59.55
76603;BME280;65075;48.390;17.598;2023-05-07T05:48:06;99886.66;;;17.57;59.28
76603;BME280;65075;48.390;17.598;2023-05-07T05:50:32;99888.44;;;18.47;57.73
76603;BME280;65075;48.390;17.598;2023-05-07T05:52:57;99868.22;;;17.66;58.38
76603;BME280;65075;48.390;17.598;2023-05-07T05:55:23;99849.22;;;17.24;59.67
76603;BME280;65075;48.390;17.598;2023-05-07T05:57:49;99886.50;;;17.76;57.97
76603;BME280;65075;48.390;17.598;2023-05-07T06:00:16;99870.19;;;17.66;59.07
76603;BME280;65075;48.390;17.598;2023-05-07T06:02:42;99899.69;;;18.95;55.43
76603;BME280;65075;48.390;17.598;2023-05-07T06:05:08;99882.13;;;19.61;52.73
76603;BME280;65075;48.390;17.598;2023-05-07T06:07:34;99879.00;;;18.62;55.80
76603;BME280;65075;48.390;17.598;2023-05-07T06:10:00;99871.88;;;19.22;53.69
76603;BME280;65075;48.390;17.598;2023-05-07T06:12:28;99912.13;;;19.76;52.76
76603;BME280;65075;48.390;17.598;2023-05-07T06:14:53;99900.53;;;19.57;52.41
76603;BME280;65075;48.390;17.598;2023-05-07T06:17:19;99919.00;;;19.87;51.34
76603;BME280;65075;48.390;17.598;2023-05-07T06:19:44;99911.03;;;19.47;52.69
76603;BME280;65075;48.390;17.598;2023-05-07T06:22:10;99897.91;;;18.33;55.01
76603;BME280;65075;48.390;17.598;2023-05-07T06:24:35;99921.41;;;18.57;55.08
76603;BME280;65075;48.390;17.598;2023-05-07T06:27:01;99924.47;;;19.31;53.64
76603;BME280;65075;48.390;17.598;2023-05-07T06:29:26;99917.78;;;19.54;52.52
76603;BME280;65075;48.390;17.598;2023-05-07T06:31:55;99918.28;;;20.64;49.67
76603;BME280;65075;48.390;17.598;2023-05-07T06:34:21;99927.38;;;20.90;48.23
76603;BME280;65075;48.390;17.598;2023-05-07T06:36:46;99929.91;;;19.92;50.46
76603;BME280;65075;48.390;17.598;2023-05-07T06:39:12;99894.41;;;19.77;50.95
76603;BME280;65075;48.390;17.598;2023-05-07T06:41:37;99921.84;;;19.57;50.80
76603;BME280;65075;48.390;17.598;2023-05-07T06:44:04;99888.22;;;19.89;50.91
76603;BME280;65075;48.390;17.598;2023-05-07T06:46:30;99900.19;;;20.41;51.20
76603;BME280;65075;48.390;17.598;2023-05-07T06:48:56;99918.44;;;23.22;44.28
76603;BME280;65075;48.390;17.598;2023-05-07T06:51:22;99925.28;;;21.51;47.19
76603;BME280;65075;48.390;17.598;2023-05-07T06:53:48;99925.75;;;22.20;46.11
76603;BME280;65075;48.390;17.598;2023-05-07T06:56:13;99927.41;;;19.65;52.31
76603;BME280;65075;48.390;17.598;2023-05-07T06:58:39;99938.78;;;20.20;49.89
76603;BME280;65075;48.390;17.598;2023-05-07T07:01:04;99935.84;;;20.17;49.84
76603;BME280;65075;48.390;17.598;2023-05-07T07:03:30;99914.06;;;19.36;51.80
76603;BME280;65075;48.390;17.598;2023-05-07T07:05:55;99928.00;;;20.19;51.15
76603;BME280;65075;48.390;17.598;2023-05-07T07:08:22;99911.88;;;21.53;46.76
76603;BME280;65075;48.390;17.598;2023-05-07T07:10:48;99928.75;;;21.77;45.67
76603;BME280;65075;48.390;17.598;2023-05-07T07:13:13;99944.03;;;20.82;48.54
76603;BME280;65075;48.390;17.598;2023-05-07T07:15:39;99949.31;;;22.35;45.24
76603;BME280;65075;48.390;17.598;2023-05-07T07:18:06;99934.91;;;21.91;46.14
76603;BME280;65075;48.390;17.598;2023-05-07T07:20:34;99950.19;;;21.22;46.56
76603;BME280;65075;48.390;17.598;2023-05-07T07:23:06;99944.47;;;22.94;43.73
76603;BME280;65075;48.390;17.598;2023-05-07T07:25:31;99952.53;;;21.95;44.40
76603;BME280;65075;48.390;17.598;2023-05-07T07:28:00;99955.50;;;22.19;43.70
76603;BME280;65075;48.390;17.598;2023-05-07T07:30:25;99949.34;;;22.55;43.91
76603;BME280;65075;48.390;17.598;2023-05-07T07:32:51;99941.09;;;22.67;42.62
76603;BME280;65075;48.390;17.598;2023-05-07T07:35:18;99947.03;;;23.44;41.78
76603;BME280;65075;48.390;17.598;2023-05-07T07:37:43;99949.06;;;23.34;41.85
76603;BME280;65075;48.390;17.598;2023-05-07T07:40:09;99941.69;;;22.73;43.31
76603;BME280;65075;48.390;17.598;2023-05-07T07:42:35;99954.94;;;20.95;48.19
76603;BME280;65075;48.390;17.598;2023-05-07T07:45:01;99921.06;;;21.45;46.03
76603;BME280;65075;48.390;17.598;2023-05-07T07:47:27;99934.66;;;21.29;46.58
76603;BME280;65075;48.390;17.598;2023-05-07T07:49:53;99938.00;;;21.52;46.28
76603;BME280;65075;48.390;17.598;2023-05-07T07:52:19;99940.66;;;22.57;44.31
76603;BME280;65075;48.390;17.598;2023-05-07T07:54:45;99952.53;;;20.34;48.04
76603;BME280;65075;48.390;17.598;2023-05-07T07:57:10;99956.47;;;21.94;44.92
76603;BME280;65075;48.390;17.598;2023-05-07T07:59:36;99964.47;;;20.04;49.31
76603;BME280;65075;48.390;17.598;2023-05-07T08:02:01;99964.28;;;20.57;48.64
76603;BME280;65075;48.390;17.598;2023-05-07T08:04:27;99969.81;;;20.65;48.06
76603;BME280;65075;48.390;17.598;2023-05-07T08:06:52;99964.09;;;20.96;47.60
76603;BME280;65075;48.390;17.598;2023-05-07T08:09:22;99968.91;;;23.78;40.90
76603;BME280;65075;48.390;17.598;2023-05-07T08:11:48;99972.66;;;24.70;38.92
76603;BME280;65075;48.390;17.598;2023-05-07T08:14:19;99947.31;;;23.51;40.02
76603;BME280;65075;48.390;17.598;2023-05-07T08:16:44;99949.16;;;23.83;39.53
76603;BME280;65075;48.390;17.598;2023-05-07T08:19:10;99953.44;;;22.78;42.61
76603;BME280;65075;48.390;17.598;2023-05-07T08:21:39;99972.34;;;23.39;40.23
76603;BME280;65075;48.390;17.598;2023-05-07T08:24:06;99973.06;;;24.57;40.13
76603;BME280;65075;48.390;17.598;2023-05-07T08:26:31;99952.59;;;25.20;37.26
76603;BME280;65075;48.390;17.598;2023-05-07T08:28:57;99954.66;;;24.80;38.11
76603;BME280;65075;48.390;17.598;2023-05-07T08:31:22;99947.66;;;23.16;41.47
76603;BME280;65075;48.390;17.598;2023-05-07T08:33:49;99983.06;;;23.28;41.61
76603;BME280;65075;48.390;17.598;2023-05-07T08:36:18;99947.41;;;24.79;37.71
76603;BME280;65075;48.390;17.598;2023-05-07T08:38:44;99962.66;;;24.29;38.39
76603;BME280;65075;48.390;17.598;2023-05-07T08:41:10;99963.03;;;24.68;40.18
76603;BME280;65075;48.390;17.598;2023-05-07T08:43:38;99987.41;;;24.83;38.65
76603;BME280;65075;48.390;17.598;2023-05-07T08:46:08;99949.16;;;24.83;37.89
76603;BME280;65075;48.390;17.598;2023-05-07T08:48:35;99955.00;;;25.81;35.47
76603;BME280;65075;48.390;17.598;2023-05-07T08:51:01;99955.53;;;26.71;33.48
76603;BME280;65075;48.390;17.598;2023-05-07T08:53:27;99939.75;;;26.44;34.93
76603;BME280;65075;48.390;17.598;2023-05-07T08:55:53;99982.84;;;23.90;40.06
76603;BME280;65075;48.390;17.598;2023-05-07T08:58:18;99973.88;;;25.40;37.94
76603;BME280;65075;48.390;17.598;2023-05-07T09:00:44;99956.16;;;27.19;34.38
76603;BME280;65075;48.390;17.598;2023-05-07T09:03:11;99964.56;;;26.46;35.20
76603;BME280;65075;48.390;17.598;2023-05-07T09:05:39;99975.53;;;26.35;35.01
76603;BME280;65075;48.390;17.598;2023-05-07T09:08:06;99962.44;;;28.26;31.73
76603;BME280;65075;48.390;17.598;2023-05-07T09:10:33;99969.25;;;26.07;35.75
76603;BME280;65075;48.390;17.598;2023-05-07T09:12:59;99948.84;;;25.28;36.96
76603;BME280;65075;48.390;17.598;2023-05-07T09:15:26;99969.25;;;23.64;41.94
76603;BME280;65075;48.390;17.598;2023-05-07T09:17:51;99969.63;;;24.75;38.98
76603;BME280;65075;48.390;17.598;2023-05-07T09:20:18;99975.59;;;22.46;43.15
76603;BME280;65075;48.390;17.598;2023-05-07T09:22:43;99963.81;;;24.28;39.55
76603;BME280;65075;48.390;17.598;2023-05-07T09:25:09;99972.16;;;22.69;43.70
76603;BME280;65075;48.390;17.598;2023-05-07T09:27:35;99971.94;;;24.45;37.96
76603;BME280;65075;48.390;17.598;2023-05-07T09:30:05;99979.75;;;27.18;34.61
76603;BME280;65075;48.390;17.598;2023-05-07T09:32:34;99984.25;;;28.62;32.56
76603;BME280;65075;48.390;17.598;2023-05-07T09:35:01;99972.91;;;28.81;30.27
76603;BME280;65075;48.390;17.598;2023-05-07T09:37:28;99979.94;;;27.48;33.13
76603;BME280;65075;48.390;17.598;2023-05-07T09:39:57;99951.25;;;28.82;30.90
76603;BME280;65075;48.390;17.598;2023-05-07T09:42:24;99973.84;;;30.06;29.30
76603;BME280;65075;48.390;17.598;2023-05-07T09:44:52;99970.22;;;27.42;32.63
76603;BME280;65075;48.390;17.598;2023-05-07T09:47:23;99966.13;;;28.04;32.27
76603;BME280;65075;48.390;17.598;2023-05-07T09:49:49;99965.91;;;25.54;36.25
76603;BME280;65075;48.390;17.598;2023-05-07T09:52:16;99972.56;;;26.12;35.88
76603;BME280;65075;48.390;17.598;2023-05-07T09:54:43;99958.63;;;26.66;33.79
76603;BME280;65075;48.390;17.598;2023-05-07T09:57:11;99974.97;;;27.60;32.35
76603;BME280;65075;48.390;17.598;2023-05-07T09:59:42;99965.28;;;26.08;34.69
76603;BME280;65075;48.390;17.598;2023-05-07T10:02:09;99973.47;;;26.32;34.94
76603;BME280;65075;48.390;17.598;2023-05-07T10:04:36;99957.69;;;28.56;30.92
76603;BME280;65075;48.390;17.598;2023-05-07T10:07:03;99975.19;;;29.06;29.23
76603;BME280;65075;48.390;17.598;2023-05-07T10:09:31;99975.22;;;28.76;31.19
76603;BME280;65075;48.390;17.598;2023-05-07T10:11:58;99950.22;;;29.74;29.11
76603;BME280;65075;48.390;17.598;2023-05-07T10:14:25;99971.19;;;28.73;31.28
76603;BME280;65075;48.390;17.598;2023-05-07T10:16:53;99972.19;;;29.58;30.18
76603;BME280;65075;48.390;17.598;2023-05-07T10:19:19;99964.03;;;28.23;30.18
76603;BME280;65075;48.390;17.598;2023-05-07T10:21:55;99957.50;;;29.35;28.46
76603;BME280;65075;48.390;17.598;2023-05-07T10:24:27;99954.13;;;28.59;29.76
76603;BME280;65075;48.390;17.598;2023-05-07T10:26:56;99973.16;;;26.37;33.69
76603;BME280;65075;48.390;17.598;2023-05-07T10:29:33;99961.00;;;27.41;31.20
76603;BME280;65075;48.390;17.598;2023-05-07T10:34:43;99973.72;;;28.29;28.43
76603;BME280;65075;48.390;17.598;2023-05-07T10:37:11;99977.34;;;28.56;28.55
76603;BME280;65075;48.390;17.598;2023-05-07T10:39:37;99950.66;;;27.91;28.35
76603;BME280;65075;48.390;17.598;2023-05-07T10:42:10;99929.50;;;27.70;28.79
76603;BME280;65075;48.390;17.598;2023-05-07T10:44:36;99967.22;;;28.78;28.06
76603;BME280;65075;48.390;17.598;2023-05-07T10:47:07;99966.75;;;28.72;29.40
76603;BME280;65075;48.390;17.598;2023-05-07T10:52:14;99977.78;;;28.32;27.43
76603;BME280;65075;48.390;17.598;2023-05-07T10:54:42;99958.38;;;27.74;28.59
76603;BME280;65075;48.390;17.598;2023-05-07T10:59:57;99968.50;;;27.56;30.31
76603;BME280;65075;48.390;17.598;2023-05-07T11:02:23;99970.81;;;27.51;29.23
76603;BME280;65075;48.390;17.598;2023-05-07T11:07:54;99979.31;;;27.80;29.04
76603;BME280;65075;48.390;17.598;2023-05-07T11:10:21;99965.47;;;26.69;29.52
76603;BME280;65075;48.390;17.598;2023-05-07T11:12:47;99978.56;;;27.00;30.16
76603;BME280;65075;48.390;17.598;2023-05-07T11:15:13;99955.00;;;26.82;29.75
76603;BME280;65075;48.390;17.598;2023-05-07T11:17:58;99974.38;;;26.36;31.10
76603;BME280;65075;48.390;17.598;2023-05-07T11:20:47;99982.13;;;26.97;30.65
76603;BME280;65075;48.390;17.598;2023-05-07T11:26:07;99972.50;;;25.93;30.94
76603;BME280;65075;48.390;17.598;2023-05-07T11:28:43;99979.34;;;25.96;31.00
76603;BME280;65075;48.390;17.598;2023-05-07T11:31:10;99959.72;;;25.77;30.80
76603;BME280;65075;48.390;17.598;2023-05-07T11:33:37;99977.69;;;25.04;32.19
76603;BME280;65075;48.390;17.598;2023-05-07T11:36:04;99977.59;;;25.44;31.79
76603;BME280;65075;48.390;17.598;2023-05-07T11:38:30;99987.94;;;25.28;32.89
76603;BME280;65075;48.390;17.598;2023-05-07T11:41:00;99950.50;;;24.49;32.99
76603;BME280;65075;48.390;17.598;2023-05-07T11:43:31;99985.00;;;25.09;32.94
76603;BME280;65075;48.390;17.598;2023-05-07T11:46:07;99966.06;;;24.63;32.64
76603;BME280;65075;48.390;17.598;2023-05-07T11:48:33;99976.06;;;24.52;32.95
76603;BME280;65075;48.390;17.598;2023-05-07T11:51:03;99975.88;;;24.44;32.77
76603;BME280;65075;48.390;17.598;2023-05-07T11:53:36;99919.91;;;23.65;33.03
76603;BME280;65075;48.390;17.598;2023-05-07T11:56:09;99978.13;;;24.67;31.74
76603;BME280;65075;48.390;17.598;2023-05-07T11:58:35;99949.06;;;23.22;34.34
76603;BME280;65075;48.390;17.598;2023-05-07T12:01:01;99976.72;;;24.73;33.32
76603;BME280;65075;48.390;17.598;2023-05-07T12:03:27;99924.44;;;24.06;33.50
76603;BME280;65075;48.390;17.598;2023-05-07T12:05:53;99976.00;;;24.24;32.13
76603;BME280;65075;48.390;17.598;2023-05-07T12:08:20;99932.09;;;23.72;33.21
76603;BME280;65075;48.390;17.598;2023-05-07T12:10:50;99978.56;;;24.29;32.76
76603;BME280;65075;48.390;17.598;2023-05-07T12:13:25;99986.81;;;23.77;34.14
76603;BME280;65075;48.390;17.598;2023-05-07T12:15:55;99991.94;;;24.23;33.43
76603;BME280;65075;48.390;17.598;2023-05-07T12:18:22;99996.00;;;24.26;33.30
76603;BME280;65075;48.390;17.598;2023-05-07T12:20:49;99957.88;;;25.10;32.74
76603;BME280;65075;48.390;17.598;2023-05-07T12:23:15;99988.69;;;23.97;34.08
76603;BME280;65075;48.390;17.598;2023-05-07T12:25:42;99998.28;;;23.30;35.83
76603;BME280;65075;48.390;17.598;2023-05-07T12:28:16;100001.69;;;24.05;34.00
76603;BME280;65075;48.390;17.598;2023-05-07T12:30:44;99998.16;;;23.72;34.89
76603;BME280;65075;48.390;17.598;2023-05-07T12:33:11;100003.00;;;24.20;33.72
76603;BME280;65075;48.390;17.598;2023-05-07T12:35:39;100003.28;;;23.04;35.52
76603;BME280;65075;48.390;17.598;2023-05-07T12:38:10;99995.53;;;22.77;36.49
76603;BME280;65075;48.390;17.598;2023-05-07T12:40:41;99990.75;;;23.88;34.71
76603;BME280;65075;48.390;17.598;2023-05-07T12:43:07;99998.53;;;23.82;34.77
76603;BME280;65075;48.390;17.598;2023-05-07T12:45:37;100001.47;;;22.88;35.18
76603;BME280;65075;48.390;17.598;2023-05-07T12:48:06;99995.59;;;22.39;36.08
76603;BME280;65075;48.390;17.598;2023-05-07T12:50:33;99987.31;;;23.13;36.21
76603;BME280;65075;48.390;17.598;2023-05-07T12:52:59;99965.84;;;22.10;35.00
76603;BME280;65075;48.390;17.598;2023-05-07T12:55:25;99990.47;;;22.91;36.25
76603;BME280;65075;48.390;17.598;2023-05-07T12:57:53;99987.34;;;22.72;36.28
76603;BME280;65075;48.390;17.598;2023-05-07T13:00:37;99991.34;;;22.12;38.22
76603;BME280;65075;48.390;17.598;2023-05-07T13:03:03;99979.81;;;22.72;35.80